Time;durP1;ratioP1;P1;durP2;ratioP2;P2;SDS_P1;SDS_P2;PMS_P1;PMS_P2;Temp;Humidity;BMP_temperature;BMP_pressure;BME280_temperature;BME280_humidity;BME280_pressure;Samples;Min_cycle;Max_cycle;Signal;HPM_P1;HPM_P2
2021/03/18 00:01:08;;;;;;;43.40;17.35;;;-3275.50;95.20;;;;;;5001460;28;20025;-68
2021/03/18 00:03:36;;;;;;;48.15;17.50;;;-3275.50;95.20;;;;;;4997173;28;20455;-68
2021/03/18 00:06:03;;;;;;;45.67;18.15;;;-3275.50;95.30;;;;;;5000505;28;20036;-69
2021/03/18 00:08:29;;;;;;;44.78;18.17;;;-3275.60;95.50;;;;;;4998108;28;20026;-69
2021/03/18 00:10:55;;;;;;;52.65;20.05;;;-3275.60;95.50;;;;;;5001528;28;20017;-68
2021/03/18 00:13:23;;;;;;;46.03;18.05;;;-3275.50;95.50;;;;;;5003384;28;20540;-68
2021/03/18 00:15:50;;;;;;;48.70;19.05;;;-3275.50;95.50;;;;;;4985274;28;20033;-67
2021/03/18 00:18:18;;;;;;;50.53;19.23;;;-3275.50;95.50;;;;;;4998531;28;20060;-68
2021/03/18 00:20:44;;;;;;;54.83;20.17;;;-3275.40;95.50;;;;;;5003486;28;20054;-67
2021/03/18 00:23:10;;;;;;;52.65;19.92;;;-3275.40;95.50;;;;;;4998401;28;20058;-68
2021/03/18 00:25:36;;;;;;;63.17;22.83;;;-3275.50;95.60;;;;;;5001338;28;20037;-67
2021/03/18 00:28:03;;;;;;;62.75;22.83;;;-3275.40;95.60;;;;;;5004624;28;20022;-68
2021/03/18 00:30:29;;;;;;;68.75;22.55;;;-3275.40;95.70;;;;;;5003826;28;20080;-68
2021/03/18 00:32:55;;;;;;;63.72;22.67;;;-3275.40;95.70;;;;;;4999724;28;20498;-68
2021/03/18 00:35:22;;;;;;;54.00;21.67;;;-3275.40;95.70;;;;;;4999656;28;20034;-69
2021/03/18 00:37:49;;;;;;;55.55;21.45;;;-3275.30;95.70;;;;;;5000140;28;20037;-69
2021/03/18 00:40:22;;;;;;;63.45;22.20;;;-3275.20;95.60;;;;;;5004341;28;20026;-68
2021/03/18 00:43:05;;;;;;;60.60;21.88;;;-3275.30;95.80;;;;;;5000122;28;20041;-67
2021/03/18 00:45:34;;;;;;;73.90;24.83;;;-3275.20;95.80;;;;;;4997272;28;20125;-68
2021/03/18 00:48:00;;;;;;;59.25;22.48;;;-3275.30;95.80;;;;;;5000310;28;20548;-68
2021/03/18 00:50:37;;;;;;;69.00;24.25;;;-3275.30;95.70;;;;;;4998027;28;20168;-68
2021/03/18 00:53:04;;;;;;;69.35;24.33;;;-3275.20;95.70;;;;;;5013222;28;20425;-70
2021/03/18 00:55:30;;;;;;;77.60;25.70;;;-3275.20;95.60;;;;;;4999733;28;20046;-68
2021/03/18 00:57:56;;;;;;;79.80;27.00;;;-3275.20;95.60;;;;;;5003540;28;20050;-68
2021/03/18 01:00:26;;;;;;;82.53;27.15;;;-3275.20;95.70;;;;;;5000870;28;20040;-69
2021/03/18 01:02:53;;;;;;;80.10;28.08;;;-3275.20;95.80;;;;;;5006587;28;20026;-68
2021/03/18 01:05:37;;;;;;;91.43;29.42;;;-3275.20;95.80;;;;;;4998050;28;20057;-68
2021/03/18 01:08:04;;;;;;;86.60;27.60;;;-3275.20;95.90;;;;;;5000733;28;20120;-68
2021/03/18 01:10:35;;;;;;;82.22;28.17;;;-3275.20;95.90;;;;;;4999312;28;20026;-69
2021/03/18 01:13:01;;;;;;;77.65;27.58;;;-3275.20;96.00;;;;;;5005839;28;20529;-69
2021/03/18 01:15:27;;;;;;;85.28;27.20;;;-3275.20;96.00;;;;;;4999363;28;20034;-69
2021/03/18 01:17:54;;;;;;;85.50;27.63;;;-3275.20;96.00;;;;;;4998195;28;20026;-69
2021/03/18 01:20:21;;;;;;;80.60;27.70;;;-3275.10;95.90;;;;;;5003459;28;20541;-68
2021/03/18 01:22:46;;;;;;;90.57;28.75;;;-3275.10;95.90;;;;;;5009595;28;20029;-69
2021/03/18 01:25:12;;;;;;;99.82;30.15;;;-3275.00;95.90;;;;;;4996682;28;20033;-69
2021/03/18 01:27:39;;;;;;;94.80;29.55;;;-3275.10;96.00;;;;;;4995545;28;20034;-69
2021/03/18 01:30:14;;;;;;;89.32;28.27;;;-3275.00;95.90;;;;;;5002041;28;20034;-69
2021/03/18 01:32:40;;;;;;;77.00;26.23;;;-3275.10;95.90;;;;;;5003381;28;20026;-70
2021/03/18 01:35:13;;;;;;;99.93;31.00;;;-3275.00;95.80;;;;;;4993826;28;20038;-70
2021/03/18 01:37:39;;;;;;;78.18;27.63;;;-3275.00;95.80;;;;;;5001274;28;20494;-69
2021/03/18 01:40:08;;;;;;;81.38;26.73;;;-3274.90;95.90;;;;;;4999747;28;20491;-68
2021/03/18 01:42:33;;;;;;;87.22;28.40;;;-3274.90;95.90;;;;;;5002582;28;20049;-69
2021/03/18 01:45:01;;;;;;;88.47;28.83;;;-3274.90;95.90;;;;;;4999678;28;20034;-68
2021/03/18 01:47:26;;;;;;;99.93;28.60;;;-3275.00;96.00;;;;;;4997753;28;20058;-68
2021/03/18 01:49:52;;;;;;;99.30;29.58;;;-3275.00;96.10;;;;;;5004198;28;20096;-70
2021/03/18 01:52:18;;;;;;;88.60;26.98;;;-3275.00;96.10;;;;;;5002863;28;20076;-68
2021/03/18 01:54:43;;;;;;;84.65;27.70;;;-3274.90;96.00;;;;;;4997989;28;20044;-69
2021/03/18 01:57:09;;;;;;;93.85;28.17;;;-3274.90;96.00;;;;;;5001282;28;20034;-68
2021/03/18 01:59:35;;;;;;;109.35;31.27;;;-3274.90;96.10;;;;;;5002838;28;20041;-68
2021/03/18 02:02:00;;;;;;;101.82;31.23;;;-3275.00;96.10;;;;;;4995888;28;20401;-68
2021/03/18 02:04:26;;;;;;;112.45;30.48;;;-3275.00;96.20;;;;;;5002402;28;20045;-69
2021/03/18 02:06:52;;;;;;;115.65;33.35;;;-3275.00;96.20;;;;;;5003986;28;20022;-69
2021/03/18 02:09:18;;;;;;;116.70;33.90;;;-3275.10;96.30;;;;;;4974434;28;20029;-68
2021/03/18 02:11:43;;;;;;;102.43;32.85;;;-3275.10;96.30;;;;;;5002821;28;20406;-68
2021/03/18 02:14:09;;;;;;;86.65;29.55;;;-3275.30;96.30;;;;;;5005065;28;20457;-69
2021/03/18 02:16:39;;;;;;;97.30;30.73;;;-3275.30;96.30;;;;;;5001985;28;20037;-69
2021/03/18 02:19:07;;;;;;;102.13;32.30;;;-3275.40;96.40;;;;;;4999980;28;20053;-68
2021/03/18 02:21:58;;;;;;;93.18;31.05;;;-3275.50;96.40;;;;;;4995354;28;20080;-69
2021/03/18 02:24:43;;;;;;;97.30;31.88;;;-3275.50;96.30;;;;;;4996036;28;20034;-70
2021/03/18 02:27:42;;;;;;;100.20;30.95;;;-3275.50;96.20;;;;;;4997756;28;20390;-68
2021/03/18 02:30:37;;;;;;;173.70;33.03;;;-3275.60;96.20;;;;;;5006648;28;20026;-69
2021/03/18 02:33:19;;;;;;;187.10;34.97;;;-3275.60;96.20;;;;;;5000011;28;20037;-68
2021/03/18 02:35:50;;;;;;;305.20;36.72;;;-3275.60;96.10;;;;;;5002280;28;20398;-69
2021/03/18 02:38:20;;;;;;;269.80;36.67;;;-3275.60;96.30;;;;;;5004455;28;20030;-68
2021/03/18 02:40:53;;;;;;;273.52;37.55;;;-3275.60;96.30;;;;;;5004041;28;20026;-68
2021/03/18 02:43:21;;;;;;;204.65;31.70;;;-3275.60;96.40;;;;;;4997650;28;20116;-68
2021/03/18 02:45:54;;;;;;;227.80;31.58;;;-3275.60;96.50;;;;;;4999360;28;20109;-69
2021/03/18 02:48:35;;;;;;;149.40;24.77;;;-3275.60;96.60;;;;;;5003514;28;20018;-68
2021/03/18 02:51:02;;;;;;;173.98;24.42;;;-3275.60;96.60;;;;;;5000632;28;20038;-68
2021/03/18 02:53:31;;;;;;;218.02;26.17;;;-3275.50;96.70;;;;;;4998703;28;20376;-67
2021/03/18 02:56:00;;;;;;;227.20;27.73;;;-3275.40;96.70;;;;;;5000393;28;20084;-68
2021/03/18 02:58:29;;;;;;;131.20;23.85;;;-3275.40;96.80;;;;;;4998930;28;20318;-69
2021/03/18 03:00:56;;;;;;;186.88;26.48;;;-3275.40;96.80;;;;;;5004422;28;20116;-69
2021/03/18 03:03:22;;;;;;;182.65;24.73;;;-3275.50;96.90;;;;;;4996293;28;20030;-70
2021/03/18 03:05:52;;;;;;;170.45;23.25;;;-3275.40;96.90;;;;;;5004458;28;20037;-69
2021/03/18 03:08:18;;;;;;;224.27;23.88;;;-3275.40;96.90;;;;;;5001013;28;20033;-68
2021/03/18 03:10:45;;;;;;;182.73;21.33;;;-3275.30;96.80;;;;;;5003312;28;20026;-68
2021/03/18 03:13:12;;;;;;;161.70;23.52;;;-3275.30;96.80;;;;;;5002476;28;20557;-69
2021/03/18 03:15:38;;;;;;;145.10;19.55;;;-3275.30;96.90;;;;;;5003774;28;20450;-70
2021/03/18 03:18:08;;;;;;;201.63;20.83;;;-3275.30;96.90;;;;;;5002258;28;20426;-70
2021/03/18 03:20:35;;;;;;;175.25;19.02;;;-3275.20;96.90;;;;;;5006640;28;20026;-69
2021/03/18 03:23:03;;;;;;;302.27;21.60;;;-3275.20;96.80;;;;;;5006475;28;20512;-68
2021/03/18 03:25:29;;;;;;;218.23;18.20;;;-3275.20;96.90;;;;;;5004135;28;20034;-69
2021/03/18 03:27:55;;;;;;;208.32;18.75;;;-3275.10;96.80;;;;;;5007513;28;20033;-68
2021/03/18 03:30:23;;;;;;;212.05;18.58;;;-3275.20;96.90;;;;;;5009500;28;20025;-69
2021/03/18 03:32:49;;;;;;;245.00;19.58;;;-3275.10;96.90;;;;;;4997498;28;20026;-69
2021/03/18 03:35:15;;;;;;;218.23;18.60;;;-3275.10;96.90;;;;;;5001702;28;20206;-68
2021/03/18 03:37:44;;;;;;;218.93;18.55;;;-3275.10;96.90;;;;;;5005695;28;20438;-70
2021/03/18 03:40:12;;;;;;;221.23;19.13;;;-3275.10;96.90;;;;;;5002885;28;20500;-69
2021/03/18 03:42:38;;;;;;;226.13;20.67;;;-3275.10;97.00;;;;;;5009869;28;20071;-69
2021/03/18 03:45:09;;;;;;;247.80;21.02;;;-3275.10;97.00;;;;;;5005669;28;20091;-68
2021/03/18 03:47:35;;;;;;;218.07;17.90;;;-3275.10;97.00;;;;;;5007491;28;20395;-69
2021/03/18 03:50:02;;;;;;;121.22;14.38;;;-3275.10;97.00;;;;;;5009351;28;20424;-69
2021/03/18 03:52:38;;;;;;;158.23;16.05;;;-3275.00;97.00;;;;;;5006758;28;20380;-69
2021/03/18 03:55:25;;;;;;;210.48;18.95;;;-3275.10;97.10;;;;;;5003282;28;20482;-70
2021/03/18 03:57:58;;;;;;;237.00;20.27;;;-3275.20;97.20;;;;;;5005017;28;20075;-69
2021/03/18 04:00:24;;;;;;;170.85;17.92;;;-3275.30;97.30;;;;;;4994828;28;20030;-68
2021/03/18 04:02:53;;;;;;;214.00;22.05;;;-3275.30;97.30;;;;;;5008420;28;20041;-69
2021/03/18 04:05:20;;;;;;;169.63;21.13;;;-3275.40;97.30;;;;;;5003957;28;20026;-68
2021/03/18 04:07:47;;;;;;;147.20;19.45;;;-3275.40;97.40;;;;;;5002185;28;20026;-70
2021/03/18 04:10:15;;;;;;;235.38;22.15;;;-3275.40;97.30;;;;;;5003905;28;20088;-69
2021/03/18 04:12:45;;;;;;;141.20;15.70;;;-3275.40;97.30;;;;;;5009646;28;20030;-69
2021/03/18 04:15:14;;;;;;;216.90;18.17;;;-3275.40;97.30;;;;;;5002753;28;20077;-68
2021/03/18 04:17:43;;;;;;;204.18;18.83;;;-3275.30;97.20;;;;;;5004947;28;20033;-69
2021/03/18 04:20:12;;;;;;;225.30;20.20;;;-3275.40;97.30;;;;;;5006212;28;20065;-68
2021/03/18 04:22:40;;;;;;;250.75;20.13;;;-3275.40;97.30;;;;;;5009039;28;20037;-69
2021/03/18 04:25:07;;;;;;;226.52;21.13;;;-3275.40;97.30;;;;;;5007425;28;20117;-68
2021/03/18 04:27:35;;;;;;;201.93;18.42;;;-3275.40;97.30;;;;;;5005089;28;20013;-69
2021/03/18 04:30:04;;;;;;;235.73;19.30;;;-3275.40;97.30;;;;;;5004119;28;20259;-68
2021/03/18 04:32:31;;;;;;;180.80;18.25;;;-3275.40;97.40;;;;;;5009924;28;20030;-69
2021/03/18 04:34:57;;;;;;;196.13;19.23;;;-3275.50;97.40;;;;;;5005263;28;20013;-68
2021/03/18 04:37:24;;;;;;;151.30;19.88;;;-3275.50;97.40;;;;;;5006446;28;20109;-69
2021/03/18 04:39:51;;;;;;;135.82;20.50;;;-3275.60;97.40;;;;;;5005821;28;20061;-68
2021/03/18 04:42:17;;;;;;;196.30;21.15;;;-3275.70;97.40;;;;;;4997438;28;20021;-69
2021/03/18 04:44:44;;;;;;;161.35;18.83;;;-3275.60;97.40;;;;;;5008333;28;20528;-71
2021/03/18 04:47:14;;;;;;;136.70;20.33;;;-3275.60;97.40;;;;;;5001826;28;20095;-70
2021/03/18 04:49:43;;;;;;;149.88;21.05;;;-3275.70;97.50;;;;;;5003910;28;20149;-68
2021/03/18 04:52:14;;;;;;;139.32;22.23;;;-3275.80;97.50;;;;;;4999609;28;20079;-68
2021/03/18 04:54:40;;;;;;;193.38;20.33;;;-3275.90;97.50;;;;;;5006282;28;20206;-69
2021/03/18 04:57:07;;;;;;;159.85;21.00;;;-3275.80;97.50;;;;;;5004469;28;20030;-68
2021/03/18 04:59:35;;;;;;;201.27;21.65;;;-3275.80;97.50;;;;;;5006535;28;20041;-70
2021/03/18 05:02:02;;;;;;;147.48;21.13;;;-3275.90;97.50;;;;;;4998312;28;20030;-69
2021/03/18 05:04:30;;;;;;;173.02;24.08;;;-3275.90;97.50;;;;;;5002898;28;20038;-69
2021/03/18 05:06:56;;;;;;;146.73;21.25;;;-3275.90;97.50;;;;;;5000683;28;20036;-68
2021/03/18 05:09:25;;;;;;;196.73;22.00;;;-3275.90;97.50;;;;;;5007768;28;20030;-70
2021/03/18 05:11:53;;;;;;;173.35;23.40;;;-3275.90;97.50;;;;;;4989587;28;20045;-68
2021/03/18 05:14:18;;;;;;;157.20;22.83;;;-3276.00;97.50;;;;;;4987425;28;20066;-69
2021/03/18 05:16:45;;;;;;;234.25;26.25;;;-3276.00;97.50;;;;;;4985808;28;20034;-70
2021/03/18 05:19:14;;;;;;;194.90;22.92;;;-3276.00;97.50;;;;;;4990882;28;20038;-69
2021/03/18 05:21:43;;;;;;;213.23;25.20;;;-3276.00;97.50;;;;;;4985890;28;20030;-67
2021/03/18 05:24:11;;;;;;;240.20;24.13;;;-3276.10;97.50;;;;;;4985660;28;20495;-69
2021/03/18 05:26:37;;;;;;;291.45;25.88;;;-3276.10;97.50;;;;;;4985474;28;20038;-69
2021/03/18 05:29:04;;;;;;;206.80;23.52;;;-3276.10;97.50;;;;;;4986728;28;20030;-69
2021/03/18 05:31:29;;;;;;;208.07;23.00;;;-3276.10;97.50;;;;;;4986137;28;20453;-68
2021/03/18 05:33:55;;;;;;;160.40;23.38;;;-3276.10;97.50;;;;;;4985614;28;20034;-68
2021/03/18 05:36:21;;;;;;;199.55;24.83;;;-3276.10;97.50;;;;;;4985859;28;20524;-68
2021/03/18 05:38:47;;;;;;;187.10;24.05;;;-3276.10;97.50;;;;;;4984170;28;20030;-69
2021/03/18 05:41:13;;;;;;;145.13;25.13;;;-3276.20;97.50;;;;;;4986148;28;20044;-68
2021/03/18 05:43:39;;;;;;;133.85;23.08;;;-3276.30;97.50;;;;;;5003826;28;20030;-68
2021/03/18 05:46:05;;;;;;;130.77;22.75;;;-3276.30;97.50;;;;;;5004768;28;20029;-68
2021/03/18 05:48:32;;;;;;;165.15;22.38;;;-3276.30;97.50;;;;;;5002212;28;20036;-68
2021/03/18 05:50:58;;;;;;;101.38;21.55;;;-3276.30;97.50;;;;;;5007062;28;20030;-68
2021/03/18 05:53:24;;;;;;;176.68;22.83;;;-3276.30;97.50;;;;;;5002677;28;20031;-68
2021/03/18 05:55:52;;;;;;;99.30;21.00;;;-3276.40;97.50;;;;;;5005513;28;20034;-68
2021/03/18 05:58:22;;;;;;;130.07;21.42;;;-3276.30;97.40;;;;;;5003133;28;20033;-68
2021/03/18 06:00:49;;;;;;;134.60;21.73;;;-3276.40;97.40;;;;;;4990630;28;20516;-68
2021/03/18 06:03:15;;;;;;;132.30;20.52;;;-3276.40;97.40;;;;;;5006572;28;20133;-68
2021/03/18 06:05:41;;;;;;;177.55;20.98;;;-3276.40;97.40;;;;;;4999804;28;20113;-70
2021/03/18 06:08:09;;;;;;;174.32;21.90;;;-3276.50;97.40;;;;;;5001704;28;20100;-69
2021/03/18 06:10:35;;;;;;;139.32;21.08;;;-3276.50;97.30;;;;;;4994821;28;20458;-68
2021/03/18 06:13:01;;;;;;;175.07;22.02;;;-3276.50;97.30;;;;;;5000325;28;20068;-68
2021/03/18 06:15:27;;;;;;;140.95;20.88;;;-3276.50;97.30;;;;;;5001102;28;20035;-69
2021/03/18 06:17:54;;;;;;;140.75;19.95;;;-3276.50;97.30;;;;;;4996713;28;20038;-70
2021/03/18 06:20:32;;;;;;;151.00;20.55;;;-3276.60;97.30;;;;;;5002839;28;20026;-68
2021/03/18 06:23:01;;;;;;;161.52;20.42;;;-3276.60;97.30;;;;;;4981209;28;20026;-69
2021/03/18 06:25:32;;;;;;;141.20;19.52;;;-3276.60;97.30;;;;;;5006278;28;20117;-68
2021/03/18 06:28:18;;;;;;;139.85;19.42;;;-3276.60;97.30;;;;;;5004282;28;20025;-68
2021/03/18 06:31:14;;;;;;;98.15;18.45;;;-3276.70;97.20;;;;;;5000368;28;20022;-68
2021/03/18 06:33:49;;;;;;;122.90;18.80;;;0.00;97.30;;;;;;5000723;28;20034;-69
2021/03/18 06:36:29;;;;;;;95.65;16.85;;;0.00;97.30;;;;;;5001095;28;20045;-69
2021/03/18 06:39:15;;;;;;;64.53;15.05;;;0.00;97.30;;;;;;4999488;28;21545;-68
2021/03/18 06:41:44;;;;;;;89.90;16.27;;;0.10;97.20;;;;;;5004210;28;20071;-69
2021/03/18 06:44:24;;;;;;;98.03;16.10;;;0.10;97.20;;;;;;5003022;28;20114;-68
2021/03/18 06:46:54;;;;;;;97.07;13.68;;;0.10;97.20;;;;;;5002057;28;20391;-68
2021/03/18 06:49:23;;;;;;;103.07;13.55;;;0.10;97.00;;;;;;5005399;28;20030;-68
2021/03/18 06:52:05;;;;;;;61.22;12.00;;;0.10;96.90;;;;;;5005173;28;20577;-68
2021/03/18 06:54:36;;;;;;;89.85;13.10;;;0.10;96.90;;;;;;4999229;28;20160;-68
2021/03/18 06:57:03;;;;;;;75.60;12.25;;;0.10;96.90;;;;;;4995798;28;20097;-68
2021/03/18 06:59:34;;;;;;;65.50;11.02;;;0.00;96.80;;;;;;4996004;28;20034;-68
2021/03/18 07:02:14;;;;;;;63.78;10.73;;;0.10;97.00;;;;;;5004465;28;20359;-69
2021/03/18 07:04:46;;;;;;;58.78;10.98;;;0.10;97.00;;;;;;5006162;28;20029;-68
2021/03/18 07:07:12;;;;;;;62.95;10.55;;;0.10;97.00;;;;;;5004295;28;20014;-68
2021/03/18 07:09:39;;;;;;;62.42;10.50;;;0.20;97.00;;;;;;4996399;28;20388;-68
2021/03/18 07:12:11;;;;;;;58.60;9.30;;;0.20;97.00;;;;;;5003822;28;20022;-68
2021/03/18 07:14:50;;;;;;;60.08;9.70;;;0.30;96.90;;;;;;5000351;28;20026;-68
2021/03/18 07:17:35;;;;;;;47.38;10.85;;;0.30;96.90;;;;;;5002112;28;20022;-68
2021/03/18 07:20:20;;;;;;;40.58;9.38;;;0.30;96.80;;;;;;5002031;28;20383;-68
2021/03/18 07:22:49;;;;;;;32.38;8.63;;;0.30;96.70;;;;;;5002793;28;20042;-69
2021/03/18 07:25:17;;;;;;;52.38;9.38;;;0.50;96.80;;;;;;4998736;28;20034;-68
2021/03/18 07:27:45;;;;;;;33.00;8.68;;;0.60;96.70;;;;;;5002871;28;20030;-69
2021/03/18 07:30:28;;;;;;;35.95;8.35;;;0.60;96.70;;;;;;4996737;28;20080;-69
2021/03/18 07:32:56;;;;;;;36.17;8.77;;;0.80;96.70;;;;;;5005981;28;20022;-69
2021/03/18 07:35:24;;;;;;;36.22;8.65;;;0.90;96.60;;;;;;5004832;28;20160;-69
2021/03/18 07:37:49;;;;;;;29.08;8.38;;;0.90;96.30;;;;;;5006263;28;20030;-68
2021/03/18 07:40:15;;;;;;;24.85;7.75;;;1.00;96.40;;;;;;5005773;28;20052;-68
2021/03/18 07:42:42;;;;;;;34.30;9.35;;;1.00;96.30;;;;;;5003523;28;20742;-69
2021/03/18 07:45:09;;;;;;;37.05;8.45;;;1.00;96.30;;;;;;4992521;28;20275;-69
2021/03/18 07:47:37;;;;;;;34.63;8.63;;;1.00;96.20;;;;;;4998718;28;20034;-69
2021/03/18 07:50:09;;;;;;;34.00;8.43;;;1.00;96.20;;;;;;5004434;28;20033;-68
2021/03/18 07:52:38;;;;;;;29.23;8.60;;;1.00;96.20;;;;;;5004861;28;20029;-68
2021/03/18 07:55:06;;;;;;;31.77;9.13;;;0.90;96.20;;;;;;4996250;28;20486;-68
2021/03/18 07:57:44;;;;;;;36.17;8.77;;;0.90;96.30;;;;;;5000833;28;20490;-68
2021/03/18 08:00:25;;;;;;;26.88;7.57;;;0.80;96.40;;;;;;4998997;28;20391;-69
2021/03/18 08:02:51;;;;;;;;;;;0.80;96.50;;;;;;5005539;28;20025;-68
2021/03/18 08:05:39;;;;;;;47.38;8.52;;;0.80;96.50;;;;;;4999073;28;19964;-69
2021/03/18 08:08:06;;;;;;;38.70;8.07;;;1.00;96.60;;;;;;5004739;28;20100;-69
2021/03/18 08:10:31;;;;;;;30.50;8.27;;;0.90;96.50;;;;;;5001220;28;20030;-68
2021/03/18 08:12:59;;;;;;;34.63;8.23;;;0.80;96.60;;;;;;5008184;28;20026;-68
2021/03/18 08:15:29;;;;;;;38.85;8.00;;;0.90;96.70;;;;;;5006598;28;20105;-68
2021/03/18 08:17:56;;;;;;;28.58;7.95;;;0.90;96.60;;;;;;5004609;28;20281;-69
2021/03/18 08:20:48;;;;;;;40.88;8.60;;;1.00;96.70;;;;;;5009431;28;20038;-68
2021/03/18 08:23:23;;;;;;;38.55;8.40;;;1.00;96.70;;;;;;4998157;28;20049;-69
2021/03/18 08:25:53;;;;;;;38.72;7.95;;;1.00;96.70;;;;;;5001780;28;20491;-69
2021/03/18 08:28:39;;;;;;;25.98;7.30;;;1.00;96.70;;;;;;5007566;28;20026;-68
2021/03/18 08:31:07;;;;;;;44.88;8.75;;;1.00;96.70;;;;;;5005306;28;20026;-69
2021/03/18 08:33:34;;;;;;;33.67;8.32;;;1.10;96.70;;;;;;5007349;28;20033;-68
2021/03/18 08:36:25;;;;;;;46.35;8.23;;;1.20;96.80;;;;;;4991621;28;20072;-69
2021/03/18 08:38:58;;;;;;;42.15;8.30;;;1.20;96.70;;;;;;5007130;28;20066;-69
2021/03/18 08:41:45;;;;;;;41.30;8.50;;;1.20;96.60;;;;;;5006287;28;20034;-69
2021/03/18 08:44:14;;;;;;;31.42;8.05;;;1.10;96.60;;;;;;5001750;28;20041;-69
2021/03/18 08:46:51;;;;;;;32.97;8.00;;;1.10;96.50;;;;;;5009307;28;20079;-68
2021/03/18 08:49:38;;;;;;;41.53;8.95;;;1.30;96.70;;;;;;4997343;28;20030;-69
2021/03/18 08:52:19;;;;;;;50.03;8.75;;;1.50;96.90;;;;;;4990171;28;20578;-69
2021/03/18 08:54:49;;;;;;;25.92;7.78;;;1.50;96.40;;;;;;4997725;28;20030;-69
2021/03/18 08:57:20;;;;;;;28.97;7.60;;;1.60;96.40;;;;;;4989668;28;20035;-68
2021/03/18 08:59:51;;;;;;;26.38;7.50;;;1.60;96.30;;;;;;4993621;28;20297;-69
2021/03/18 09:02:20;;;;;;;28.50;7.43;;;1.50;96.00;;;;;;5002078;28;20014;-68
2021/03/18 09:04:50;;;;;;;27.58;8.20;;;1.80;96.30;;;;;;5006853;28;20606;-68
2021/03/18 09:07:20;;;;;;;26.30;7.72;;;1.80;95.90;;;;;;4993412;28;20036;-68
2021/03/18 09:09:57;;;;;;;32.10;7.65;;;1.80;95.60;;;;;;5002761;28;20408;-69
2021/03/18 09:12:23;;;;;;;25.98;7.68;;;2.00;96.00;;;;;;5006695;28;20498;-69
2021/03/18 09:14:48;;;;;;;21.05;7.93;;;1.90;95.60;;;;;;5004961;28;20120;-70
2021/03/18 09:17:14;;;;;;;16.67;7.20;;;1.90;95.50;;;;;;4998283;28;20113;-68
2021/03/18 09:19:46;;;;;;;21.38;7.90;;;2.00;95.50;;;;;;4999411;28;20038;-69
2021/03/18 09:22:23;;;;;;;15.63;6.60;;;2.20;95.60;;;;;;4991417;28;20029;-68
2021/03/18 09:24:49;;;;;;;24.27;8.05;;;2.20;95.20;;;;;;5001665;28;20181;-68
2021/03/18 09:27:15;;;;;;;17.95;7.53;;;2.40;95.20;;;;;;5005541;28;20660;-68
2021/03/18 09:29:44;;;;;;;20.52;7.75;;;2.40;94.90;;;;;;4995680;28;20180;-69
2021/03/18 09:32:11;;;;;;;18.42;7.72;;;2.40;94.50;;;;;;4988107;28;20461;-67
2021/03/18 09:34:38;;;;;;;15.35;7.78;;;2.40;94.70;;;;;;4999830;28;20113;-70
2021/03/18 09:37:05;;;;;;;13.13;6.93;;;2.30;94.60;;;;;;5001666;28;20072;-68
2021/03/18 09:39:30;;;;;;;15.80;7.95;;;2.60;94.60;;;;;;5002910;28;20127;-68
2021/03/18 09:42:01;;;;;;;15.98;8.15;;;2.80;94.30;;;;;;5008405;28;20225;-68
2021/03/18 09:44:27;;;;;;;16.83;7.78;;;2.80;93.90;;;;;;5003413;28;20029;-68
2021/03/18 09:46:54;;;;;;;16.35;7.95;;;2.80;93.60;;;;;;5003752;28;20194;-68
2021/03/18 09:49:30;;;;;;;19.13;7.82;;;2.80;93.80;;;;;;5006508;28;20022;-69
2021/03/18 09:51:57;;;;;;;14.45;7.57;;;2.80;93.40;;;;;;5007827;28;20026;-69
2021/03/18 09:54:23;;;;;;;16.63;7.32;;;2.70;93.20;;;;;;5001323;28;20631;-68
2021/03/18 09:56:51;;;;;;;16.98;7.95;;;2.80;92.80;;;;;;5001594;28;20045;-69
2021/03/18 09:59:17;;;;;;;14.60;7.68;;;3.20;92.90;;;;;;4997932;28;20152;-68
2021/03/18 10:01:43;;;;;;;17.20;7.78;;;3.40;92.40;;;;;;5005353;28;20120;-69
2021/03/18 10:04:14;;;;;;;15.57;7.45;;;3.20;91.30;;;;;;5006380;28;20514;-69
2021/03/18 10:06:57;;;;;;;12.65;7.35;;;3.30;92.00;;;;;;5002955;28;20045;-68
2021/03/18 10:09:24;;;;;;;15.80;7.80;;;3.30;90.50;;;;;;4999238;28;20053;-69
2021/03/18 10:11:56;;;;;;;14.00;7.43;;;3.60;91.20;;;;;;5000276;28;20574;-67
2021/03/18 10:15:04;;;;;;;13.95;6.93;;;3.80;90.90;;;;;;5000135;28;20084;-67
2021/03/18 10:17:44;;;;;;;15.20;6.63;;;3.90;90.10;;;;;;4996689;28;20153;-66
2021/03/18 10:20:32;;;;;;;11.65;6.57;;;4.10;88.00;;;;;;5002561;28;20064;-67
2021/03/18 10:23:00;;;;;;;13.35;7.38;;;4.40;87.50;;;;;;4998959;28;20600;-67
2021/03/18 10:25:28;;;;;;;13.00;6.53;;;4.60;86.60;;;;;;4999914;28;20116;-67
2021/03/18 10:28:04;;;;;;;12.35;6.90;;;4.40;86.40;;;;;;4997738;28;20478;-67
2021/03/18 10:30:30;;;;;;;13.60;7.40;;;4.40;87.50;;;;;;5004269;28;20033;-67
2021/03/18 10:33:16;;;;;;;12.52;6.53;;;4.50;87.60;;;;;;5006421;28;20022;-68
2021/03/18 10:35:44;;;;;;;14.68;6.78;;;4.30;87.10;;;;;;5005623;28;20030;-66
2021/03/18 10:38:14;;;;;;;14.73;6.53;;;4.40;87.20;;;;;;4999004;28;20030;-67
2021/03/18 10:40:46;;;;;;;12.63;6.30;;;4.40;86.90;;;;;;5003799;28;20022;-66
2021/03/18 10:43:19;;;;;;;13.18;6.85;;;4.30;86.60;;;;;;4990898;28;20123;-67
2021/03/18 10:45:45;;;;;;;13.50;6.35;;;4.60;87.50;;;;;;4998286;28;20446;-67
2021/03/18 10:48:16;;;;;;;12.93;6.28;;;4.60;87.30;;;;;;4998311;28;20029;-67
2021/03/18 10:50:42;;;;;;;11.38;6.10;;;4.50;86.70;;;;;;5002838;28;20026;-68
2021/03/18 10:53:10;;;;;;;12.38;6.50;;;4.70;86.80;;;;;;5006121;28;20041;-68
2021/03/18 10:55:39;;;;;;;12.20;6.00;;;5.10;87.10;;;;;;4996858;28;20027;-66
2021/03/18 10:58:06;;;;;;;11.93;6.35;;;5.00;85.50;;;;;;5003800;28;20038;-67
2021/03/18 11:00:38;;;;;;;11.48;5.93;;;5.10;86.00;;;;;;5002807;28;20056;-68
2021/03/18 11:03:17;;;;;;;13.02;6.35;;;5.60;85.50;;;;;;5006011;28;20036;-68
2021/03/18 11:05:48;;;;;;;9.75;5.57;;;5.80;82.90;;;;;;5004238;28;20042;-67
2021/03/18 11:08:33;;;;;;;15.23;6.57;;;5.80;82.90;;;;;;5002869;28;20045;-67
2021/03/18 11:11:00;;;;;;;12.77;6.38;;;5.40;82.50;;;;;;5005259;28;20038;-68
2021/03/18 11:13:29;;;;;;;11.35;6.03;;;5.30;82.80;;;;;;5006726;28;20526;-67
2021/03/18 11:15:58;;;;;;;12.68;6.28;;;5.20;83.20;;;;;;5004299;28;20074;-67
2021/03/18 11:18:43;;;;;;;13.45;6.60;;;5.10;83.70;;;;;;5003807;28;21975;-67
2021/03/18 11:21:29;;;;;;;11.90;6.07;;;5.20;83.70;;;;;;4998915;28;20030;-67
2021/03/18 11:24:07;;;;;;;11.27;5.97;;;5.50;83.50;;;;;;4998467;28;21742;-66
2021/03/18 11:26:34;;;;;;;11.65;6.50;;;5.60;82.00;;;;;;5001980;28;20038;-67
2021/03/18 11:29:13;;;;;;;9.27;5.72;;;6.10;82.10;;;;;;4996654;28;20081;-68
2021/03/18 11:31:45;;;;;;;12.27;6.00;;;6.40;80.80;;;;;;5005715;28;20057;-67
2021/03/18 11:34:18;;;;;;;11.35;5.55;;;6.70;78.30;;;;;;5004947;28;20109;-66
2021/03/18 11:36:47;;;;;;;10.93;5.63;;;6.60;78.10;;;;;;5000994;28;20040;-68
2021/03/18 11:39:14;;;;;;;10.18;4.88;;;6.30;78.20;;;;;;5000946;28;20129;-67
2021/03/18 11:41:40;;;;;;;8.70;5.35;;;6.50;79.40;;;;;;5003235;28;20034;-67
2021/03/18 11:44:06;;;;;;;11.57;5.57;;;7.30;76.10;;;;;;4996536;28;20028;-67
2021/03/18 11:46:32;;;;;;;11.20;5.43;;;7.90;75.20;;;;;;5002268;28;20029;-67
2021/03/18 11:48:57;;;;;;;10.07;5.40;;;7.70;72.40;;;;;;5007291;28;20445;-67
2021/03/18 11:51:23;;;;;;;9.18;4.75;;;7.80;71.70;;;;;;5009361;28;20036;-67
2021/03/18 11:53:53;;;;;;;9.75;4.70;;;7.80;73.00;;;;;;5005023;28;20112;-68
2021/03/18 11:56:19;;;;;;;8.70;4.95;;;7.30;71.40;;;;;;5003192;28;20026;-68
2021/03/18 11:58:45;;;;;;;9.88;5.35;;;7.30;73.60;;;;;;5009099;28;20037;-67
2021/03/18 12:01:11;;;;;;;8.63;5.07;;;7.50;74.70;;;;;;5008584;28;20072;-67
2021/03/18 12:03:37;;;;;;;8.95;4.80;;;7.30;72.40;;;;;;5004905;28;20029;-67
2021/03/18 12:06:02;;;;;;;10.13;5.47;;;7.00;73.00;;;;;;5002424;28;20034;-66
2021/03/18 12:08:28;;;;;;;10.82;5.10;;;7.00;72.60;;;;;;5000951;28;20026;-67
2021/03/18 12:10:56;;;;;;;10.13;5.05;;;7.40;74.30;;;;;;5006340;28;20617;-68
2021/03/18 12:13:21;;;;;;;8.05;4.78;;;7.10;72.30;;;;;;5008705;28;20045;-68
2021/03/18 12:15:47;;;;;;;9.57;4.65;;;7.00;72.80;;;;;;5007797;28;20033;-67
2021/03/18 12:18:13;;;;;;;8.50;4.72;;;6.80;72.70;;;;;;5005565;28;20025;-67
2021/03/18 12:20:38;;;;;;;10.52;4.63;;;6.50;72.50;;;;;;4998452;28;20108;-68
2021/03/18 12:23:04;;;;;;;8.95;4.88;;;6.50;73.00;;;;;;5000042;28;20062;-66
2021/03/18 12:25:30;;;;;;;12.30;5.38;;;6.20;72.90;;;;;;4997952;28;20125;-67
2021/03/18 12:27:55;;;;;;;8.57;4.32;;;6.10;74.70;;;;;;4998130;28;20672;-67
2021/03/18 12:30:22;;;;;;;10.85;5.70;;;6.00;74.70;;;;;;4997986;28;20430;-67
2021/03/18 12:32:50;;;;;;;11.98;5.18;;;5.90;75.30;;;;;;4999210;28;20225;-67